EDT,Max TemperatureF,Mean TemperatureF,Min TemperatureF,Max Dew PointF,MeanDew PointF,Min DewpointF,Max Humidity, Mean Humidity, Min Humidity, Max Sea Level PressureIn, Mean Sea Level PressureIn, Min Sea Level PressureIn, Max VisibilityMiles, Mean VisibilityMiles, Min VisibilityMiles, Max Wind SpeedMPH, Mean Wind SpeedMPH, Max Gust SpeedMPH,PrecipitationIn, CloudCover, Events, WindDirDegrees
2008-4-1,76,63,49,56,52,48,100,72,43,30.20,30.11,29.98,10,8,2,17,8,23,0.01,5,Rain,168
2008-4-2,71,61,51,53,46,35,93,61,29,30.30,30.21,30.12,10,9,1,20,9,25,0.14,5,Rain,324
2008-4-3,54,48,41,45,42,38,100,80,59,30.35,30.26,30.15,10,5,2,14,7,18,0.17,8,Rain,157
2008-4-4,65,53,41,61,51,41,100,89,78,30.15,29.97,29.84,10,7,2,18,9,24,0.40,7,Rain,181
2008-4-5,58,55,52,56,54,52,100,97,93,29.99,29.90,29.83,10,7,2,20,4,26,0.68,8,Rain,53
2008-4-6,65,57,49,52,50,48,100,80,60,30.05,29.96,29.87,10,8,0,14,6,17,0.03,6,Fog-Rain,9
2008-4-7,64,56,47,51,47,45,93,75,56,30.16,30.10,30.03,10,10,10,15,7,18,0.00,6,,164
2008-4-8,57,53,48,48,46,45,93,80,67,30.22,30.18,30.12,10,9,3,15,7,17,0.00,6,,164
2008-4-9,73,59,45,49,46,43,93,66,38,30.23,30.17,30.09,10,10,10,13,4,16,0.00,2,,163
2008-4-10,72,59,45,52,47,45,100,69,38,30.19,30.09,30.03,10,9,5,17,5,22,0.00,0,,148
2008-4-11,74,65,56,63,56,48,87,72,57,30.04,29.91,29.78,10,10,6,23,8,28,0.06,6,Rain-Thunderstorm,185
2008-4-12,72,61,50,59,44,14,90,52,14,29.81,29.73,29.63,10,9,2,21,8,32,0.11,3,Rain-Thunderstorm,271
2008-4-13,53,45,37,34,29,25,70,56,41,29.99,29.86,29.78,10,10,10,24,12,30,T,4,Rain,345
2008-4-14,45,40,35,35,31,28,85,69,53,30.11,30.00,29.94,10,10,6,23,11,29,0.03,8,Rain,338
2008-4-15,57,47,36,31,25,15,76,48,20,30.24,30.18,30.11,10,10,10,21,11,25,0.00,2,,335
2008-4-16,68,48,28,30,25,15,92,54,15,30.33,30.24,30.16,10,10,10,12,2,14,0.00,0,,159
2008-4-17,75,54,33,38,32,19,89,51,13,30.24,30.17,30.09,10,10,10,17,4,21,0.00,0,,32
2008-4-18,78,58,38,40,35,29,85,51,17,30.18,30.07,29.96,10,10,8,16,6,21,0.00,0,,172
2008-4-19,66,56,46,54,50,41,93,71,49,29.97,29.91,29.83,10,10,6,21,8,24,0.10,5,Rain,177
2008-4-20,61,51,41,45,42,37,100,71,42,29.99,29.91,29.85,10,6,0,24,10,29,0.00,3,Fog,341
2008-4-21,69,56,42,46,42,39,82,62,42,30.03,29.98,29.94,10,10,10,22,12,26,0.00,1,,339
2008-4-22,70,59,48,49,46,44,86,65,44,30.12,30.04,29.99,10,10,10,15,5,22,0.00,4,,24
2008-4-23,74,64,53,53,50,48,83,64,44,30.22,30.14,30.08,10,10,10,12,4,16,0.00,5,,138
2008-4-24,76,61,46,53,48,43,100,66,31,30.26,30.18,30.11,10,8,1,15,3,17,0.00,0,,159
2008-4-25,77,63,49,59,53,48,93,66,39,30.16,30.10,30.05,10,10,5,15,4,21,0.08,2,Rain,177
2008-4-26,75,62,49,61,54,48,100,77,53,30.14,30.08,29.99,10,4,0,22,2,29,0.20,3,Fog-Rain-Thunderstorm,201
2008-4-27,67,60,53,61,57,53,100,87,73,30.15,30.07,29.94,10,5,1,15,3,18,0.43,5,Rain,165
2008-4-28,62,53,44,59,51,34,100,75,50,29.97,29.85,29.77,10,7,1,23,10,29,0.40,6,Rain,338
2008-4-29,54,45,36,41,28,23,76,56,35,30.09,30.01,29.89,10,10,7,23,13,32,T,2,Rain,342
2008-4-30,69,50,31,40,33,26,100,64,27,30.16,30.09,30.03,10,10,10,12,3,16,0.00,0,,181